Date,TemperatureHighF,TemperatureAvgF,TemperatureLowF,DewpointHighF,DewpointAvgF,DewpointLowF,HumidityHigh,HumidityAvg,HumidityLow,PressureMaxIn,PressureMinIn,WindSpeedMaxMPH,WindSpeedAvgMPH,GustSpeedMaxMPH,PrecipitationSumIn
2013-5-1,85.2,71.5,51.8,59.4,53.5,42.2,74,55,30,30.23,29.96,25,6,25,0.00
2013-5-2,52.3,44.5,37.2,43.0,38.1,34.0,89,78,67,30.36,30.20,30,16,30,0.12
2013-5-3,48.9,39.8,34.8,46.1,36.9,31.6,90,89,88,30.29,29.98,21,12,21,1.32
2013-5-4,69.0,58.5,48.9,57.1,52.2,46.1,90,80,62,30.12,29.98,17,7,17,0.00
2013-5-5,73.5,61.7,-12.7,55.8,50.7,-26.4,90,70,45,30.13,29.11,16,6,16,0.00
2013-5-6,76.2,64.0,49.6,53.1,47.4,43.7,82,57,37,30.15,30.06,15,3,15,0.00
2013-5-7,81.6,66.8,51.9,53.3,47.9,43.5,80,54,29,30.14,30.06,10,1,10,0.00
2013-5-8,84.5,64.3,51.9,57.9,48.7,43.5,75,58,32,30.12,30.03,13,1,13,0.00
2013-5-9,72.6,62.4,57.7,62.4,57.0,52.6,98,82,66,30.05,29.87,12,2,12,0.51
2013-5-10,60.0,50.3,45.1,57.1,45.8,41.5,90,85,77,30.08,29.88,19,10,19,0.06
2013-5-11,57.7,50.3,39.7,50.5,39.6,26.2,90,70,37,30.19,29.97,31,8,31,0.02
2013-5-12,57.5,46.9,34.5,32.9,29.1,26.3,73,51,35,30.26,30.17,21,6,21,0.02
2013-5-13,70.3,43.7,34.8,42.8,31.5,27.2,76,64,29,30.26,29.99,14,0,14,0.00
2013-5-14,84.9,58.4,54.3,62.4,45.2,41.1,71,62,47,29.99,29.69,17,6,17,0.00
2013-5-15,84.0,73.1,61.5,56.8,52.3,46.0,67,49,30,29.96,29.73,62,4,62,0.00
2013-5-16,85.1,71.9,55.0,54.9,49.3,21.7,72,47,14,30.02,29.93,17,2,17,0.00
2013-5-17,83.1,70.2,60.4,62.1,55.9,48.9,79,61,46,30.07,29.97,18,5,18,0.00
2013-5-18,83.1,70.7,57.0,66.7,59.3,51.9,84,69,50,30.09,29.97,15,4,15,0.00
2013-5-19,82.9,67.6,62.2,70.0,61.4,57.5,88,81,64,30.02,29.89,19,6,19,0.39
2013-5-20,79.9,67.5,61.5,64.8,60.2,57.9,88,78,60,29.82,29.74,12,7,15,0.04
2013-5-21,77.5,70.8,61.5,60.2,57.2,28.5,78,63,52,29.78,29.74,20,3,20,0.39
2013-5-22,72.5,61.7,55.9,57.5,54.4,51.8,87,78,54,29.86,29.71,13,2,13,0.39
2013-5-23,65.6,57.9,51.0,54.1,50.0,39.9,89,76,50,30.35,29.85,22,8,22,0.04
2013-5-24,69.6,55.2,39.5,43.4,39.1,34.5,86,57,32,30.52,30.34,13,3,13,0.04
2013-5-25,57.7,50.0,46.7,47.8,44.1,41.1,85,80,57,30.46,30.32,23,5,23,0.41
2013-5-26,56.4,51.6,45.6,52.0,46.6,41.4,89,83,71,30.35,30.12,21,8,21,0.65
2013-5-27,66.3,60.1,55.5,61.7,56.5,52.0,90,88,84,30.14,29.89,17,8,17,0.08
2013-5-28,80.4,67.7,58.6,72.3,63.3,55.4,90,86,74,29.90,29.72,22,4,22,0.16
2013-5-29,84.7,70.7,60.6,72.1,62.9,56.0,86,77,63,29.99,29.82,18,3,18,0.02
2013-5-30,83.4,74.5,62.2,70.2,66.0,58.4,88,75,60,29.93,29.75,30,7,30,0.65
2013-5-31,77.1,68.6,62.4,66.4,61.6,23.3,88,79,60,29.87,29.71,31,6,31,0.22